Time;durP1;ratioP1;P1;durP2;ratioP2;P2;SDS_P1;SDS_P2;PMS_P1;PMS_P2;Temp;Humidity;BMP_temperature;BMP_pressure;BME280_temperature;BME280_humidity;BME280_pressure;Samples;Min_cycle;Max_cycle;Signal;HPM_P1;HPM_P2
2024/02/01 00:02:00;;;;;;;8.07;4.85;;;;;;;;;;5104679;28;20647;-69
2024/02/01 00:04:28;;;;;;;5.93;4.65;;;;;;;;;;5103657;28;20258;-66
2024/02/01 00:06:56;;;;;;;5.65;5.25;;;;;;;;;;5105146;28;20298;-64
2024/02/01 00:09:27;;;;;;;10.85;5.50;;;;;;;;;;5102223;28;20230;-66
2024/02/01 00:11:55;;;;;;;6.22;5.63;;;;;;;;;;5119382;28;20274;-66
2024/02/01 00:14:23;;;;;;;7.90;6.35;;;;;;;;;;5104599;28;20612;-65
2024/02/01 00:16:52;;;;;;;9.35;5.22;;;;;;;;;;5104642;28;20293;-65
2024/02/01 00:19:21;;;;;;;6.15;5.15;;;;;;;;;;5104049;28;20314;-66
2024/02/01 00:21:50;;;;;;;5.35;4.63;;;;;;;;;;5102466;28;20425;-64
2024/02/01 00:24:18;;;;;;;6.90;4.95;;;;;;;;;;5104420;28;20259;-64
2024/02/01 00:26:46;;;;;;;8.23;5.75;;;;;;;;;;5102731;28;20274;-64
2024/02/01 00:29:14;;;;;;;8.15;6.60;;;;;;;;;;5103449;28;20678;-64
2024/02/01 00:31:43;;;;;;;7.85;6.53;;;;;;;;;;5104246;28;20713;-66
2024/02/01 00:34:11;;;;;;;6.05;5.50;;;;;;;;;;5104849;28;20351;-66
2024/02/01 00:36:41;;;;;;;6.50;5.97;;;;;;;;;;5104384;28;20835;-66
2024/02/01 00:39:09;;;;;;;4.95;4.55;;;;;;;;;;5103776;28;20274;-66
2024/02/01 00:41:37;;;;;;;6.90;6.20;;;;;;;;;;5104553;28;20254;-66
2024/02/01 00:44:05;;;;;;;5.38;4.75;;;;;;;;;;5103793;28;20282;-65
2024/02/01 00:46:33;;;;;;;6.00;5.32;;;;;;;;;;5099622;28;20648;-65
2024/02/01 00:49:02;;;;;;;5.30;4.85;;;;;;;;;;5103402;28;20278;-64
2024/02/01 00:51:30;;;;;;;7.68;4.57;;;;;;;;;;5101099;28;20279;-65
2024/02/01 00:53:59;;;;;;;5.43;4.10;;;;;;;;;;5103357;28;20259;-67
2024/02/01 00:56:28;;;;;;;4.50;4.20;;;;;;;;;;5103302;28;20298;-63
2024/02/01 00:58:56;;;;;;;5.10;4.72;;;;;;;;;;5100962;28;20256;-63
2024/02/01 01:01:25;;;;;;;4.72;4.38;;;;;;;;;;5103084;28;20267;-63
2024/02/01 01:03:53;;;;;;;5.82;4.10;;;;;;;;;;5098397;28;20287;-62
2024/02/01 01:06:21;;;;;;;4.35;3.80;;;;;;;;;;5101126;28;20317;-65
2024/02/01 01:08:49;;;;;;;4.53;4.20;;;;;;;;;;5102611;28;20294;-65
2024/02/01 01:11:19;;;;;;;4.90;4.10;;;;;;;;;;5102527;28;20263;-65
2024/02/01 01:13:47;;;;;;;4.25;3.85;;;;;;;;;;5101260;28;20262;-63
2024/02/01 01:16:15;;;;;;;3.72;3.42;;;;;;;;;;5103217;28;20286;-62
2024/02/01 01:18:43;;;;;;;4.75;3.80;;;;;;;;;;5102455;28;20259;-63
2024/02/01 01:21:12;;;;;;;4.45;4.15;;;;;;;;;;5103330;28;20267;-64
2024/02/01 01:23:40;;;;;;;4.85;4.55;;;;;;;;;;5102593;28;20300;-63
2024/02/01 01:26:08;;;;;;;4.20;3.90;;;;;;;;;;5103670;28;20302;-64
2024/02/01 01:28:38;;;;;;;4.40;4.03;;;;;;;;;;5103151;28;20259;-62
2024/02/01 01:31:06;;;;;;;3.85;3.60;;;;;;;;;;5103439;28;20328;-62
2024/02/01 01:33:34;;;;;;;3.85;3.55;;;;;;;;;;5101602;28;20267;-63
2024/02/01 01:36:02;;;;;;;3.90;3.70;;;;;;;;;;5090832;28;20732;-65
2024/02/01 01:38:30;;;;;;;5.13;4.40;;;;;;;;;;5090229;28;20552;-64
2024/02/01 01:40:59;;;;;;;5.85;4.40;;;;;;;;;;5089100;28;20201;-64
2024/02/01 01:43:27;;;;;;;4.43;4.20;;;;;;;;;;5088647;28;20202;-64
2024/02/01 01:46:01;;;;;;;4.30;4.10;;;;;;;;;;5090329;28;20586;-65
2024/02/01 01:48:30;;;;;;;4.25;4.05;;;;;;;;;;5089312;28;20193;-64
2024/02/01 01:50:59;;;;;;;4.80;4.50;;;;;;;;;;5090575;28;20215;-66
2024/02/01 01:53:28;;;;;;;4.20;3.92;;;;;;;;;;5089844;28;20708;-64
2024/02/01 01:55:56;;;;;;;5.00;4.60;;;;;;;;;;5090646;28;20200;-64
2024/02/01 01:58:27;;;;;;;4.68;4.15;;;;;;;;;;5089197;28;20589;-65
2024/02/01 02:00:57;;;;;;;5.18;3.88;;;;;;;;;;5090638;28;20179;-64
2024/02/01 02:03:27;;;;;;;4.20;3.30;;;;;;;;;;5089244;28;20202;-65
2024/02/01 02:05:56;;;;;;;4.20;3.80;;;;;;;;;;5089531;28;20226;-64
2024/02/01 02:08:24;;;;;;;4.07;3.67;;;;;;;;;;5089691;28;20203;-65
2024/02/01 02:10:53;;;;;;;3.00;2.88;;;;;;;;;;5089989;28;20221;-64
2024/02/01 02:13:21;;;;;;;4.05;3.35;;;;;;;;;;5088862;28;20587;-64
2024/02/01 02:15:49;;;;;;;3.75;3.53;;;;;;;;;;5090180;28;20207;-64
2024/02/01 02:18:19;;;;;;;4.25;3.83;;;;;;;;;;5089691;28;20207;-64
2024/02/01 02:20:50;;;;;;;4.47;3.45;;;;;;;;;;5089493;28;20229;-64
2024/02/01 02:23:19;;;;;;;4.35;3.90;;;;;;;;;;5087529;28;20200;-64
2024/02/01 02:25:48;;;;;;;3.35;3.05;;;;;;;;;;5089540;28;20199;-64
2024/02/01 02:28:16;;;;;;;5.07;3.40;;;;;;;;;;5089410;28;20199;-64
2024/02/01 02:30:44;;;;;;;5.85;3.75;;;;;;;;;;5090064;28;20764;-64
2024/02/01 02:33:13;;;;;;;7.13;3.40;;;;;;;;;;5089573;28;20258;-64
2024/02/01 02:35:41;;;;;;;3.65;3.38;;;;;;;;;;5089175;28;20199;-64
2024/02/01 02:38:09;;;;;;;7.88;4.05;;;;;;;;;;5088864;28;20199;-64
2024/02/01 02:40:39;;;;;;;4.30;4.00;;;;;;;;;;5089674;28;20201;-65
2024/02/01 02:43:07;;;;;;;6.72;4.15;;;;;;;;;;5088490;28;20207;-65
2024/02/01 02:45:35;;;;;;;4.32;3.92;;;;;;;;;;5088701;28;20207;-65
2024/02/01 02:48:05;;;;;;;3.65;3.35;;;;;;;;;;5084084;28;20199;-65
2024/02/01 02:50:33;;;;;;;3.92;3.50;;;;;;;;;;5080624;28;20555;-65
2024/02/01 02:53:01;;;;;;;3.85;3.55;;;;;;;;;;5070408;28;20692;-65
2024/02/01 02:55:30;;;;;;;3.60;3.40;;;;;;;;;;5088710;28;20228;-66
2024/02/01 02:57:59;;;;;;;4.13;3.80;;;;;;;;;;5088168;28;20223;-67
2024/02/01 03:00:28;;;;;;;4.88;3.13;;;;;;;;;;5078799;28;20657;-65
2024/02/01 03:02:56;;;;;;;4.03;3.60;;;;;;;;;;5104097;28;20213;-65
2024/02/01 03:05:24;;;;;;;9.27;6.75;;;;;;;;;;5088676;28;20217;-65
2024/02/01 03:07:53;;;;;;;61.90;46.03;;;;;;;;;;5089142;28;20656;-65
2024/02/01 03:10:22;;;;;;;25.98;18.67;;;;;;;;;;5089062;28;20673;-66
2024/02/01 03:12:51;;;;;;;6.03;5.53;;;;;;;;;;5082293;28;20200;-65
2024/02/01 03:15:20;;;;;;;4.30;4.00;;;;;;;;;;5075606;28;20202;-65
2024/02/01 03:17:50;;;;;;;30.00;19.70;;;;;;;;;;5089497;28;20199;-65
2024/02/01 03:20:22;;;;;;;11.93;10.70;;;;;;;;;;5089007;28;20231;-66
2024/02/01 03:22:54;;;;;;;5.75;5.35;;;;;;;;;;5089912;28;20233;-65
2024/02/01 03:25:29;;;;;;;4.00;3.80;;;;;;;;;;5089474;28;20184;-65
2024/02/01 03:28:00;;;;;;;7.75;7.07;;;;;;;;;;5089481;28;20578;-65
2024/02/01 03:30:30;;;;;;;3.35;3.15;;;;;;;;;;5088711;28;20218;-67
2024/02/01 03:33:01;;;;;;;4.70;3.60;;;;;;;;;;5088905;28;20211;-66
2024/02/01 03:35:31;;;;;;;2.85;2.60;;;;;;;;;;5088109;28;20570;-65
2024/02/01 03:37:59;;;;;;;2.28;2.17;;;;;;;;;;5089208;28;20562;-66
2024/02/01 03:40:28;;;;;;;3.85;3.53;;;;;;;;;;5089143;28;20199;-65
2024/02/01 03:42:56;;;;;;;2.60;2.50;;;;;;;;;;5089172;28;20191;-65
2024/02/01 03:45:24;;;;;;;4.10;3.65;;;;;;;;;;5088792;28;20202;-65
2024/02/01 03:47:54;;;;;;;9.57;6.93;;;;;;;;;;5089417;28;20203;-65
2024/02/01 03:50:22;;;;;;;28.42;22.02;;;;;;;;;;5089000;28;20226;-65
2024/02/01 03:52:50;;;;;;;5.10;3.97;;;;;;;;;;5089016;28;20576;-65
2024/02/01 03:55:18;;;;;;;4.07;3.30;;;;;;;;;;5081206;28;20203;-65
2024/02/01 03:57:47;;;;;;;2.55;2.45;;;;;;;;;;5091033;28;20233;-65
2024/02/01 04:00:27;;;;;;;2.42;2.15;;;;;;;;;;5092466;28;20202;-65
2024/02/01 04:02:57;;;;;;;1.65;1.55;;;;;;;;;;5087205;28;20688;-65
2024/02/01 04:05:26;;;;;;;1.70;1.60;;;;;;;;;;5079065;28;20204;-65
2024/02/01 04:07:54;;;;;;;2.33;1.48;;;;;;;;;;5091483;28;20203;-65
2024/02/01 04:10:22;;;;;;;2.88;1.98;;;;;;;;;;5092338;28;20571;-65
2024/02/01 04:12:51;;;;;;;1.60;1.50;;;;;;;;;;5087957;28;20203;-65
2024/02/01 04:15:19;;;;;;;3.25;2.15;;;;;;;;;;5091201;28;20206;-65
2024/02/01 04:17:49;;;;;;;2.28;1.60;;;;;;;;;;5092087;28;20259;-65
2024/02/01 04:20:18;;;;;;;1.70;1.60;;;;;;;;;;5091855;28;20702;-64
2024/02/01 04:22:49;;;;;;;4.40;1.67;;;;;;;;;;5092733;28;20203;-65
2024/02/01 04:25:18;;;;;;;2.78;1.60;;;;;;;;;;5089095;28;20680;-65
2024/02/01 04:27:49;;;;;;;1.73;1.55;;;;;;;;;;5091457;28;20218;-66
2024/02/01 04:30:18;;;;;;;2.47;1.55;;;;;;;;;;5092757;28;20191;-65
2024/02/01 04:32:46;;;;;;;2.20;1.60;;;;;;;;;;5092496;28;20206;-65
2024/02/01 04:35:15;;;;;;;1.40;1.30;;;;;;;;;;5092246;28;20417;-64
2024/02/01 04:37:45;;;;;;;1.58;1.35;;;;;;;;;;5091773;28;20202;-64
2024/02/01 04:40:13;;;;;;;1.63;1.52;;;;;;;;;;5087676;28;20195;-65
2024/02/01 04:42:47;;;;;;;2.17;1.00;;;;;;;;;;5091744;28;20553;-65
2024/02/01 04:45:15;;;;;;;2.35;1.40;;;;;;;;;;5091523;28;20197;-65
2024/02/01 04:47:44;;;;;;;9.40;1.95;;;;;;;;;;5091761;28;20206;-65
2024/02/01 04:50:13;;;;;;;1.42;1.35;;;;;;;;;;5091510;28;20649;-65
2024/02/01 04:52:41;;;;;;;1.40;1.30;;;;;;;;;;5091689;28;20199;-65
2024/02/01 04:55:11;;;;;;;3.72;1.90;;;;;;;;;;5083576;28;20211;-65
2024/02/01 04:57:40;;;;;;;2.00;1.60;;;;;;;;;;5091214;28;20226;-65
2024/02/01 05:00:14;;;;;;;2.67;1.50;;;;;;;;;;5091770;28;20207;-65
2024/02/01 05:02:42;;;;;;;9.60;2.42;;;;;;;;;;5087677;28;20210;-65
2024/02/01 05:05:12;;;;;;;2.53;2.00;;;;;;;;;;5090265;28;20213;-66
2024/02/01 05:07:40;;;;;;;3.40;2.08;;;;;;;;;;5106548;28;20536;-66
2024/02/01 05:10:09;;;;;;;5.45;1.98;;;;;;;;;;5081461;28;20230;-65
2024/02/01 05:12:38;;;;;;;1.70;1.60;;;;;;;;;;5087157;28;20673;-65
2024/02/01 05:15:08;;;;;;;1.95;1.65;;;;;;;;;;5091084;28;20213;-67
2024/02/01 05:17:36;;;;;;;4.25;2.25;;;;;;;;;;5087448;28;20207;-65
2024/02/01 05:20:08;;;;;;;5.43;1.73;;;;;;;;;;5091147;28;20278;-65
2024/02/01 05:22:37;;;;;;;2.20;2.00;;;;;;;;;;5090786;28;20646;-64
2024/02/01 05:25:14;;;;;;;3.53;2.47;;;;;;;;;;5078025;28;20195;-64
2024/02/01 05:27:50;;;;;;;6.88;2.13;;;;;;;;;;5082755;28;20565;-65
2024/02/01 05:30:19;;;;;;;3.35;2.50;;;;;;;;;;5091031;28;20195;-66
2024/02/01 05:32:52;;;;;;;4.60;3.00;;;;;;;;;;5089465;28;20217;-65
2024/02/01 05:35:26;;;;;;;3.67;2.55;;;;;;;;;;5090964;28;20197;-65
2024/02/01 05:37:54;;;;;;;3.55;2.88;;;;;;;;;;5089965;28;20631;-64
2024/02/01 05:40:22;;;;;;;3.13;2.83;;;;;;;;;;5090205;28;20199;-65
2024/02/01 05:42:52;;;;;;;11.55;4.15;;;;;;;;;;5090482;28;20188;-65
2024/02/01 05:45:22;;;;;;;5.45;2.72;;;;;;;;;;5090496;28;20199;-64
2024/02/01 05:47:51;;;;;;;5.82;2.78;;;;;;;;;;5090217;28;20569;-65
2024/02/01 05:50:19;;;;;;;3.90;3.60;;;;;;;;;;5090776;28;20654;-65
2024/02/01 05:52:47;;;;;;;6.30;2.95;;;;;;;;;;5073786;28;20261;-65
2024/02/01 05:55:15;;;;;;;4.75;3.10;;;;;;;;;;5090596;28;20739;-65
2024/02/01 05:57:44;;;;;;;7.47;3.70;;;;;;;;;;5081396;28;20686;-65
2024/02/01 06:00:19;;;;;;;7.38;3.97;;;;;;;;;;5090649;28;20541;-64
2024/02/01 06:02:47;;;;;;;8.63;3.95;;;;;;;;;;5078826;28;20199;-66
2024/02/01 06:05:15;;;;;;;6.22;4.35;;;;;;;;;;5088994;28;20198;-65
2024/02/01 06:07:43;;;;;;;4.32;3.97;;;;;;;;;;5088767;28;20561;-66
2024/02/01 06:10:11;;;;;;;8.07;3.83;;;;;;;;;;5088684;28;20191;-65
2024/02/01 06:12:40;;;;;;;7.72;4.25;;;;;;;;;;5088455;28;20623;-65
2024/02/01 06:15:11;;;;;;;6.35;3.65;;;;;;;;;;5105941;28;20268;-65
2024/02/01 06:17:40;;;;;;;5.18;4.35;;;;;;;;;;5089001;28;20221;-65
2024/02/01 06:20:10;;;;;;;7.03;3.97;;;;;;;;;;5088520;28;20715;-65
2024/02/01 06:22:39;;;;;;;5.90;4.28;;;;;;;;;;5076897;28;20203;-65
2024/02/01 06:25:11;;;;;;;5.38;3.92;;;;;;;;;;5088829;28;20209;-65
2024/02/01 06:27:39;;;;;;;6.93;4.18;;;;;;;;;;5089728;28;20192;-65
2024/02/01 06:30:10;;;;;;;7.38;4.25;;;;;;;;;;5085437;28;20195;-65
2024/02/01 06:32:39;;;;;;;5.38;4.13;;;;;;;;;;5082058;28;20221;-65
2024/02/01 06:35:16;;;;;;;8.75;5.10;;;;;;;;;;5089483;28;20191;-65
2024/02/01 06:37:51;;;;;;;5.07;4.15;;;;;;;;;;5069399;28;20240;-64
2024/02/01 06:40:37;;;;;;;5.43;3.92;;;;;;;;;;5105051;28;20197;-65
2024/02/01 06:43:17;;;;;;;7.03;4.70;;;;;;;;;;5089934;28;20192;-66
2024/02/01 06:45:48;;;;;;;6.40;4.15;;;;;;;;;;5088336;28;20225;-64
2024/02/01 06:48:16;;;;;;;7.35;5.38;;;;;;;;;;5084609;28;20213;-64
2024/02/01 06:50:57;;;;;;;7.50;5.28;;;;;;;;;;5083795;28;20204;-64
2024/02/01 06:53:33;;;;;;;10.00;4.68;;;;;;;;;;5088840;28;20256;-65
2024/02/01 06:56:06;;;;;;;8.30;4.75;;;;;;;;;;5091289;28;20187;-64
2024/02/01 06:58:47;;;;;;;7.28;5.20;;;;;;;;;;5081345;28;20259;-66
2024/02/01 07:01:24;;;;;;;12.27;5.10;;;;;;;;;;5080203;28;20196;-65
2024/02/01 07:03:57;;;;;;;6.80;5.00;;;;;;;;;;5072287;28;20199;-66
2024/02/01 07:06:33;;;;;;;7.70;5.00;;;;;;;;;;5077734;28;20671;-66
2024/02/01 07:11:58;;;;;;;18.73;5.30;;;;;;;;;;5084294;28;20252;-66
2024/02/01 07:14:35;;;;;;;13.38;6.65;;;;;;;;;;5089889;28;20555;-66
2024/02/01 07:17:26;;;;;;;9.40;5.28;;;;;;;;;;5105569;28;20194;-66
2024/02/01 07:19:56;;;;;;;7.88;5.53;;;;;;;;;;5089727;28;20239;-67
2024/02/01 07:23:00;;;;;;;6.40;5.00;;;;;;;;;;5090527;28;20205;-66
2024/02/01 07:25:36;;;;;;;8.63;5.43;;;;;;;;;;5089652;28;20198;-66
2024/02/01 07:58:38;;;;;;;14.45;6.75;;;;;;;;;;5092162;28;20261;-65
2024/02/01 08:01:14;;;;;;;9.50;7.63;;;;;;;;;;5092713;28;20192;-64
2024/02/01 08:03:59;;;;;;;15.93;7.63;;;;;;;;;;5092547;28;20171;-65
2024/02/01 08:09:14;;;;;;;13.32;7.30;;;;;;;;;;5107092;28;20195;-67
2024/02/01 08:11:43;;;;;;;10.15;7.70;;;;;;;;;;5092866;28;20199;-65
2024/02/01 08:14:13;;;;;;;10.77;7.35;;;;;;;;;;5092490;28;20531;-65
2024/02/01 08:16:42;;;;;;;9.55;6.95;;;;;;;;;;5094729;28;20209;-64
2024/02/01 08:19:11;;;;;;;11.38;7.30;;;;;;;;;;5089400;28;20230;-64
2024/02/01 08:21:42;;;;;;;10.13;7.15;;;;;;;;;;5078355;28;20195;-67
2024/02/01 08:24:10;;;;;;;9.18;6.93;;;;;;;;;;5092616;28;20198;-65
2024/02/01 08:26:39;;;;;;;8.77;7.07;;;;;;;;;;5093538;28;20560;-64
2024/02/01 08:29:09;;;;;;;7.65;6.82;;;;;;;;;;5083460;28;20199;-66
2024/02/01 08:31:38;;;;;;;8.40;6.53;;;;;;;;;;5073940;28;20188;-66
2024/02/01 08:34:07;;;;;;;21.40;7.55;;;;;;;;;;5072452;28;20199;-66
2024/02/01 08:36:41;;;;;;;6.97;6.00;;;;;;;;;;5081059;28;20199;-65
2024/02/01 08:39:09;;;;;;;11.10;7.60;;;;;;;;;;5107439;28;20201;-66
2024/02/01 08:41:39;;;;;;;8.93;7.05;;;;;;;;;;5091257;28;20214;-65
2024/02/01 08:44:09;;;;;;;11.55;6.65;;;;;;;;;;5091003;28;20210;-67
2024/02/01 08:46:37;;;;;;;7.20;5.20;;;;;;;;;;5091758;28;20542;-67
2024/02/01 08:49:06;;;;;;;6.60;5.50;;;;;;;;;;5087149;28;20196;-65
2024/02/01 08:51:36;;;;;;;5.72;5.20;;;;;;;;;;5092139;28;20255;-67
2024/02/01 08:54:10;;;;;;;5.90;5.28;;;;;;;;;;5091840;28;20526;-66
2024/02/01 08:56:38;;;;;;;6.78;5.30;;;;;;;;;;5082875;28;20227;-65
2024/02/01 08:59:08;;;;;;;5.38;4.88;;;;;;;;;;5092485;28;20218;-64
2024/02/01 09:01:37;;;;;;;4.63;4.20;;;;;;;;;;5092983;28;20207;-64
2024/02/01 09:04:13;;;;;;;6.15;5.18;;;;;;;;;;5086596;28;20192;-67
2024/02/01 09:06:53;;;;;;;10.38;4.63;;;;;;;;;;5084331;28;20677;-65
2024/02/01 09:09:29;;;;;;;5.95;4.68;;;;;;;;;;5081633;28;20191;-66
2024/02/01 09:11:58;;;;;;;6.47;5.40;;;;;;;;;;5090999;28;20195;-66
2024/02/01 09:14:29;;;;;;;5.97;5.03;;;;;;;;;;5091579;28;20215;-65
2024/02/01 09:16:57;;;;;;;7.63;6.32;;;;;;;;;;5091454;28;20672;-63
2024/02/01 09:19:25;;;;;;;5.30;4.80;;;;;;;;;;5107763;28;20270;-63
2024/02/01 09:21:54;;;;;;;6.10;5.10;;;;;;;;;;5107478;28;20255;-64
2024/02/01 09:24:22;;;;;;;4.53;4.13;;;;;;;;;;5101831;28;20305;-64
2024/02/01 09:26:50;;;;;;;5.03;4.40;;;;;;;;;;5086917;28;20834;-64
2024/02/01 09:29:18;;;;;;;7.32;4.85;;;;;;;;;;5076918;28;20295;-64
2024/02/01 09:31:48;;;;;;;5.88;5.18;;;;;;;;;;5075747;28;20258;-66
2024/02/01 09:34:16;;;;;;;5.10;4.10;;;;;;;;;;5078012;28;20299;-65
2024/02/01 09:36:44;;;;;;;7.03;5.57;;;;;;;;;;5084494;28;20648;-65
2024/02/01 09:39:16;;;;;;;7.60;4.90;;;;;;;;;;5096422;28;20294;-65
2024/02/01 09:41:46;;;;;;;7.53;5.18;;;;;;;;;;5094075;28;20707;-64
2024/02/01 09:44:14;;;;;;;6.28;4.97;;;;;;;;;;5093899;28;20520;-63
2024/02/01 09:46:43;;;;;;;5.97;5.38;;;;;;;;;;5111116;28;20254;-65
2024/02/01 09:49:13;;;;;;;8.68;5.82;;;;;;;;;;5095738;28;20287;-65
2024/02/01 09:51:41;;;;;;;7.78;6.45;;;;;;;;;;5116897;28;20239;-64
2024/02/01 09:54:11;;;;;;;5.90;5.30;;;;;;;;;;5103624;28;20267;-65
2024/02/01 09:56:41;;;;;;;6.82;5.20;;;;;;;;;;5103123;28;20278;-64
2024/02/01 09:59:09;;;;;;;7.90;5.72;;;;;;;;;;5103937;28;20250;-65
2024/02/01 10:01:37;;;;;;;7.07;5.32;;;;;;;;;;5101432;28;20349;-65
2024/02/01 10:04:10;;;;;;;4.82;4.43;;;;;;;;;;5100583;28;20243;-66
2024/02/01 10:06:40;;;;;;;6.50;5.53;;;;;;;;;;5098113;28;20271;-66
2024/02/01 10:09:20;;;;;;;5.00;4.60;;;;;;;;;;5103004;28;20258;-64
2024/02/01 10:11:50;;;;;;;5.30;4.60;;;;;;;;;;5090139;28;20307;-64
2024/02/01 10:14:18;;;;;;;7.03;4.72;;;;;;;;;;5087179;28;20882;-68
2024/02/01 10:16:47;;;;;;;5.18;4.60;;;;;;;;;;5098080;28;20233;-66
2024/02/01 10:19:18;;;;;;;4.75;3.60;;;;;;;;;;5122602;28;20262;-65
2024/02/01 10:21:47;;;;;;;6.28;3.72;;;;;;;;;;5106024;28;20238;-65
2024/02/01 10:24:19;;;;;;;4.57;3.60;;;;;;;;;;5108705;28;20291;-64
2024/02/01 10:26:52;;;;;;;3.50;3.30;;;;;;;;;;5107192;28;20693;-65
2024/02/01 10:29:21;;;;;;;3.25;3.05;;;;;;;;;;5109028;28;20278;-65
2024/02/01 10:31:51;;;;;;;3.50;2.80;;;;;;;;;;5101625;28;20293;-64
2024/02/01 10:34:20;;;;;;;3.50;3.30;;;;;;;;;;5101708;28;21334;-67
2024/02/01 10:36:51;;;;;;;2.70;2.50;;;;;;;;;;5092478;28;20260;-63
2024/02/01 10:39:20;;;;;;;3.40;3.10;;;;;;;;;;5078943;28;20685;-63
2024/02/01 10:41:53;;;;;;;2.80;2.53;;;;;;;;;;5080157;28;20894;-63
2024/02/01 10:44:22;;;;;;;3.30;3.00;;;;;;;;;;5086321;28;20632;-64
2024/02/01 10:46:55;;;;;;;2.57;2.40;;;;;;;;;;5095023;28;20657;-64
2024/02/01 10:49:24;;;;;;;2.80;2.60;;;;;;;;;;5107160;28;20576;-64
2024/02/01 10:51:55;;;;;;;2.93;2.73;;;;;;;;;;5101767;28;20704;-66
2024/02/01 10:54:24;;;;;;;4.53;4.13;;;;;;;;;;5098421;28;20693;-65
2024/02/01 10:56:55;;;;;;;2.80;2.60;;;;;;;;;;5098106;28;20775;-65
2024/02/01 10:59:23;;;;;;;4.23;2.60;;;;;;;;;;5098476;28;20660;-64
2024/02/01 11:01:52;;;;;;;2.67;2.47;;;;;;;;;;5096362;28;20687;-65
2024/02/01 11:04:21;;;;;;;2.87;2.60;;;;;;;;;;5097952;28;20962;-64
2024/02/01 11:06:50;;;;;;;2.97;2.70;;;;;;;;;;5101042;28;20704;-64
2024/02/01 11:09:19;;;;;;;3.70;3.20;;;;;;;;;;5102070;28;20704;-64
2024/02/01 11:11:49;;;;;;;3.40;3.10;;;;;;;;;;5091050;28;20715;-64
2024/02/01 11:14:20;;;;;;;3.60;3.30;;;;;;;;;;5100922;28;20736;-66
2024/02/01 11:16:49;;;;;;;3.20;3.00;;;;;;;;;;5104041;28;21113;-64
2024/02/01 11:19:19;;;;;;;3.30;3.10;;;;;;;;;;5102120;28;20708;-64
2024/02/01 11:21:48;;;;;;;3.37;3.07;;;;;;;;;;5100997;28;20703;-64
2024/02/01 11:24:20;;;;;;;3.97;3.67;;;;;;;;;;5103061;28;20672;-63
2024/02/01 11:26:54;;;;;;;3.47;3.17;;;;;;;;;;5102887;28;20661;-65
2024/02/01 11:29:24;;;;;;;4.27;3.97;;;;;;;;;;5102801;28;20638;-65
2024/02/01 11:32:01;;;;;;;8.23;3.93;;;;;;;;;;5102064;28;20700;-64
2024/02/01 11:34:30;;;;;;;4.97;4.53;;;;;;;;;;5100194;28;20698;-65
2024/02/01 11:36:58;;;;;;;4.00;3.70;;;;;;;;;;5101797;28;20679;-67
2024/02/01 11:39:28;;;;;;;4.90;3.55;;;;;;;;;;5100956;28;20708;-64
2024/02/01 11:41:57;;;;;;;5.67;5.00;;;;;;;;;;5101827;28;20275;-63
2024/02/01 11:44:27;;;;;;;6.00;4.93;;;;;;;;;;5101221;28;20696;-64
2024/02/01 11:46:56;;;;;;;5.15;4.65;;;;;;;;;;5103214;28;20247;-64
2024/02/01 11:49:25;;;;;;;5.43;4.60;;;;;;;;;;5101596;28;20275;-65
2024/02/01 11:51:58;;;;;;;5.00;4.50;;;;;;;;;;5102369;28;20704;-65
2024/02/01 11:54:27;;;;;;;4.18;3.78;;;;;;;;;;5100703;28;20696;-64
2024/02/01 11:56:57;;;;;;;7.10;4.40;;;;;;;;;;5100998;28;20315;-64
2024/02/01 11:59:25;;;;;;;3.30;3.10;;;;;;;;;;5101541;28;20680;-64
2024/02/01 12:01:54;;;;;;;3.67;3.47;;;;;;;;;;5100196;28;20719;-64
2024/02/01 12:04:22;;;;;;;4.20;3.80;;;;;;;;;;5100012;28;20672;-64
2024/02/01 12:06:51;;;;;;;4.63;3.83;;;;;;;;;;5100861;28;20692;-64
2024/02/01 12:09:19;;;;;;;3.55;3.25;;;;;;;;;;5099960;28;20696;-63
2024/02/01 12:11:47;;;;;;;3.53;3.23;;;;;;;;;;5100129;28;20267;-65
2024/02/01 12:14:21;;;;;;;4.83;2.87;;;;;;;;;;5100291;28;20748;-65
2024/02/01 12:16:53;;;;;;;3.47;3.17;;;;;;;;;;5098976;28;20669;-64
2024/02/01 12:19:23;;;;;;;4.93;4.43;;;;;;;;;;5098430;28;20704;-62
2024/02/01 12:21:54;;;;;;;5.00;4.53;;;;;;;;;;5100278;28;21205;-63
2024/02/01 12:24:26;;;;;;;6.67;4.43;;;;;;;;;;5096823;28;20631;-66
2024/02/01 12:26:54;;;;;;;2.13;2.03;;;;;;;;;;5099271;28;20651;-64
2024/02/01 12:29:24;;;;;;;3.50;3.30;;;;;;;;;;5096897;28;20716;-66
2024/02/01 12:31:52;;;;;;;2.40;2.30;;;;;;;;;;5098681;28;20659;-65
2024/02/01 12:34:22;;;;;;;2.27;2.17;;;;;;;;;;5098103;28;20744;-64
2024/02/01 12:36:51;;;;;;;2.40;2.30;;;;;;;;;;5098489;28;20692;-65
2024/02/01 12:39:19;;;;;;;4.38;3.63;;;;;;;;;;5099016;28;20282;-65
2024/02/01 12:41:48;;;;;;;3.53;2.53;;;;;;;;;;5098721;28;20283;-65
2024/02/01 12:44:16;;;;;;;3.30;3.00;;;;;;;;;;5097546;28;20675;-64
2024/02/01 12:46:45;;;;;;;2.97;2.73;;;;;;;;;;5096817;28;20673;-65
2024/02/01 12:49:14;;;;;;;4.33;2.80;;;;;;;;;;5099594;28;21296;-65
2024/02/01 12:51:43;;;;;;;2.50;2.30;;;;;;;;;;5080161;28;21075;-64
2024/02/01 12:54:12;;;;;;;2.70;2.50;;;;;;;;;;5092653;28;20661;-64
2024/02/01 12:56:40;;;;;;;2.40;2.20;;;;;;;;;;5099395;28;20683;-65
2024/02/01 12:59:10;;;;;;;4.07;3.77;;;;;;;;;;5098274;28;21199;-64
2024/02/01 13:01:38;;;;;;;3.57;3.23;;;;;;;;;;5100236;28;20679;-64
2024/02/01 13:04:08;;;;;;;2.30;2.10;;;;;;;;;;5097049;28;20660;-65
2024/02/01 13:06:36;;;;;;;2.77;2.60;;;;;;;;;;5100101;28;20693;-65
2024/02/01 13:09:08;;;;;;;1.90;1.80;;;;;;;;;;5092703;28;20681;-64
2024/02/01 13:11:36;;;;;;;2.30;2.20;;;;;;;;;;5098267;28;20673;-63
2024/02/01 13:14:05;;;;;;;1.90;1.80;;;;;;;;;;5092151;28;20786;-64
2024/02/01 13:16:33;;;;;;;2.37;2.17;;;;;;;;;;5090161;28;20687;-64
2024/02/01 13:19:07;;;;;;;2.20;2.10;;;;;;;;;;5082235;28;20725;-65
2024/02/01 13:21:37;;;;;;;2.50;2.40;;;;;;;;;;5082327;28;20686;-62
2024/02/01 13:24:06;;;;;;;2.60;2.40;;;;;;;;;;5078461;28;20640;-64
2024/02/01 13:26:36;;;;;;;2.70;2.60;;;;;;;;;;5083819;28;20693;-62
2024/02/01 13:29:06;;;;;;;3.00;2.77;;;;;;;;;;5098560;28;20990;-64
2024/02/01 13:31:38;;;;;;;3.10;3.00;;;;;;;;;;5098761;28;21023;-64
2024/02/01 13:34:06;;;;;;;3.00;2.70;;;;;;;;;;5098833;28;20669;-63
2024/02/01 13:36:34;;;;;;;3.13;2.93;;;;;;;;;;5098409;28;20690;-62
2024/02/01 13:39:05;;;;;;;3.20;3.00;;;;;;;;;;5097926;28;20708;-62
2024/02/01 13:41:34;;;;;;;3.20;3.00;;;;;;;;;;5096929;28;20674;-63
2024/02/01 13:44:04;;;;;;;3.37;3.10;;;;;;;;;;5092381;28;20622;-65
2024/02/01 13:46:32;;;;;;;3.33;3.23;;;;;;;;;;5097190;28;20677;-69
2024/02/01 13:49:02;;;;;;;3.77;3.67;;;;;;;;;;5096446;28;20686;-62
2024/02/01 13:51:30;;;;;;;4.63;4.43;;;;;;;;;;5097994;28;20934;-64
2024/02/01 13:53:59;;;;;;;4.40;4.20;;;;;;;;;;5094672;28;20712;-66
2024/02/01 13:56:28;;;;;;;5.03;4.83;;;;;;;;;;5104918;28;20752;-64
2024/02/01 13:58:56;;;;;;;4.33;4.13;;;;;;;;;;5099146;28;20691;-66
2024/02/01 14:01:25;;;;;;;5.53;3.60;;;;;;;;;;5106909;28;20625;-68
2024/02/01 14:03:53;;;;;;;4.70;4.50;;;;;;;;;;5101966;28;20677;-67
2024/02/01 14:06:21;;;;;;;5.13;4.93;;;;;;;;;;5105519;28;20649;-67
2024/02/01 14:08:49;;;;;;;4.43;4.23;;;;;;;;;;5104594;28;20611;-66
2024/02/01 14:11:19;;;;;;;3.63;3.53;;;;;;;;;;5108912;28;20678;-67
2024/02/01 14:13:50;;;;;;;3.70;3.50;;;;;;;;;;5105706;28;20621;-66
2024/02/01 14:16:18;;;;;;;3.63;3.53;;;;;;;;;;5100205;28;20704;-66
2024/02/01 14:18:47;;;;;;;3.20;3.00;;;;;;;;;;5101493;28;20624;-66
2024/02/01 14:21:15;;;;;;;3.47;3.13;;;;;;;;;;5099187;28;21067;-66
2024/02/01 14:23:44;;;;;;;2.50;2.30;;;;;;;;;;5095189;28;20700;-66
2024/02/01 14:26:12;;;;;;;5.50;4.90;;;;;;;;;;5093969;28;20701;-66
2024/02/01 14:28:40;;;;;;;7.93;7.13;;;;;;;;;;5093283;28;20693;-66
2024/02/01 14:31:10;;;;;;;146.33;108.33;;;;;;;;;;5092691;28;20639;-66
2024/02/01 14:33:38;;;;;;;47.43;37.47;;;;;;;;;;5092874;28;20987;-67
2024/02/01 14:36:07;;;;;;;8.00;7.30;;;;;;;;;;5092448;28;20661;-66
2024/02/01 14:38:35;;;;;;;6.20;5.70;;;;;;;;;;5086336;28;20613;-66
2024/02/01 14:41:03;;;;;;;5.00;4.80;;;;;;;;;;5091172;28;20619;-66
2024/02/01 14:43:32;;;;;;;6.13;5.93;;;;;;;;;;5091964;28;20605;-66
2024/02/01 14:46:00;;;;;;;10.80;10.20;;;;;;;;;;5092559;28;21108;-67
2024/02/01 14:48:29;;;;;;;34.33;30.70;;;;;;;;;;5107487;28;20685;-68
2024/02/01 14:50:57;;;;;;;10.27;9.57;;;;;;;;;;5093969;28;20613;-66
2024/02/01 14:53:26;;;;;;;6.90;6.60;;;;;;;;;;5093076;28;20620;-66
2024/02/01 14:55:54;;;;;;;6.33;6.13;;;;;;;;;;5092621;28;20664;-66
2024/02/01 14:58:22;;;;;;;6.97;6.50;;;;;;;;;;5092011;28;20635;-66
2024/02/01 15:00:50;;;;;;;6.50;6.20;;;;;;;;;;5093208;28;20613;-66
2024/02/01 15:03:19;;;;;;;7.17;6.47;;;;;;;;;;5091771;28;21077;-66
2024/02/01 15:05:48;;;;;;;6.30;6.03;;;;;;;;;;5090917;28;20613;-66
2024/02/01 15:08:17;;;;;;;6.20;6.00;;;;;;;;;;5091170;28;20632;-66
2024/02/01 15:10:46;;;;;;;6.43;6.23;;;;;;;;;;5086072;28;20625;-66
2024/02/01 15:13:14;;;;;;;7.30;7.00;;;;;;;;;;5091831;28;20621;-67
2024/02/01 15:15:42;;;;;;;7.40;7.10;;;;;;;;;;5092221;28;20663;-66
2024/02/01 15:18:10;;;;;;;7.40;7.10;;;;;;;;;;5088882;28;20612;-66
2024/02/01 15:20:39;;;;;;;7.00;6.80;;;;;;;;;;5091830;28;20668;-66
2024/02/01 15:23:09;;;;;;;6.90;6.70;;;;;;;;;;5092241;28;20617;-67
2024/02/01 15:25:40;;;;;;;7.70;7.40;;;;;;;;;;5093092;28;21069;-66
2024/02/01 15:28:12;;;;;;;9.70;9.30;;;;;;;;;;5103403;28;20676;-66
2024/02/01 15:30:47;;;;;;;9.37;7.60;;;;;;;;;;5092889;28;20560;-66
2024/02/01 15:33:19;;;;;;;6.93;6.63;;;;;;;;;;5091525;28;20608;-66